sensor_id;sensor_type;location;lat;lon;timestamp;P1;durP1;ratioP1;P2;durP2;ratioP2
948;SDS011;461;51.436;7.312;2023-04-10T02:02:54;29.73;;;18.20;;
948;SDS011;461;51.436;7.312;2023-04-10T02:06:58;23.97;;;17.43;;
948;SDS011;461;51.436;7.312;2023-04-10T04:11:34;37.97;;;23.73;;
948;SDS011;461;51.436;7.312;2023-04-10T04:14:02;36.43;;;22.83;;
948;SDS011;461;51.436;7.312;2023-04-10T04:16:28;31.83;;;22.97;;
948;SDS011;461;51.436;7.312;2023-04-10T04:18:54;34.57;;;21.73;;
948;SDS011;461;51.436;7.312;2023-04-10T04:21:20;34.57;;;23.13;;
948;SDS011;461;51.436;7.312;2023-04-10T04:23:46;33.00;;;23.87;;
948;SDS011;461;51.436;7.312;2023-04-10T04:26:12;29.47;;;17.97;;
948;SDS011;461;51.436;7.312;2023-04-10T04:28:39;26.33;;;18.37;;
948;SDS011;461;51.436;7.312;2023-04-10T04:31:05;34.10;;;22.43;;
948;SDS011;461;51.436;7.312;2023-04-10T04:33:31;35.00;;;22.17;;
948;SDS011;461;51.436;7.312;2023-04-10T04:35:57;32.07;;;20.90;;
948;SDS011;461;51.436;7.312;2023-04-10T04:38:23;32.03;;;20.67;;
948;SDS011;461;51.436;7.312;2023-04-10T04:40:50;35.43;;;22.70;;
948;SDS011;461;51.436;7.312;2023-04-10T04:43:16;27.50;;;21.00;;
948;SDS011;461;51.436;7.312;2023-04-10T04:45:42;28.23;;;20.40;;
948;SDS011;461;51.436;7.312;2023-04-10T04:48:08;29.10;;;18.67;;
948;SDS011;461;51.436;7.312;2023-04-10T04:50:34;25.17;;;18.90;;
948;SDS011;461;51.436;7.312;2023-04-10T04:53:00;24.17;;;18.10;;
948;SDS011;461;51.436;7.312;2023-04-10T04:55:26;29.87;;;21.73;;
948;SDS011;461;51.436;7.312;2023-04-10T04:57:53;27.30;;;18.10;;
948;SDS011;461;51.436;7.312;2023-04-10T05:00:19;30.70;;;20.67;;
948;SDS011;461;51.436;7.312;2023-04-10T05:02:45;24.20;;;16.87;;
948;SDS011;461;51.436;7.312;2023-04-10T05:05:11;25.30;;;18.43;;
948;SDS011;461;51.436;7.312;2023-04-10T05:07:37;31.87;;;19.93;;
948;SDS011;461;51.436;7.312;2023-04-10T05:10:03;28.20;;;18.80;;
948;SDS011;461;51.436;7.312;2023-04-10T05:12:30;28.90;;;19.33;;
948;SDS011;461;51.436;7.312;2023-04-10T05:14:56;29.87;;;21.73;;
948;SDS011;461;51.436;7.312;2023-04-10T05:17:33;40.43;;;20.27;;
948;SDS011;461;51.436;7.312;2023-04-10T05:20:00;43.70;;;27.07;;
948;SDS011;461;51.436;7.312;2023-04-10T05:22:26;44.10;;;27.37;;
948;SDS011;461;51.436;7.312;2023-04-10T05:24:52;38.67;;;27.00;;
948;SDS011;461;51.436;7.312;2023-04-10T05:27:19;50.27;;;25.20;;
948;SDS011;461;51.436;7.312;2023-04-10T05:29:46;39.60;;;27.73;;
948;SDS011;461;51.436;7.312;2023-04-10T05:32:12;41.37;;;27.50;;
948;SDS011;461;51.436;7.312;2023-04-10T05:34:38;35.40;;;25.80;;
948;SDS011;461;51.436;7.312;2023-04-10T05:37:04;39.57;;;27.40;;
948;SDS011;461;51.436;7.312;2023-04-10T05:39:30;44.27;;;29.03;;
948;SDS011;461;51.436;7.312;2023-04-10T05:41:56;34.30;;;23.97;;
948;SDS011;461;51.436;7.312;2023-04-10T05:44:22;42.47;;;28.10;;
948;SDS011;461;51.436;7.312;2023-04-10T05:46:48;33.00;;;23.33;;
948;SDS011;461;51.436;7.312;2023-04-10T05:49:14;34.10;;;26.07;;
948;SDS011;461;51.436;7.312;2023-04-10T05:51:41;41.30;;;26.00;;
948;SDS011;461;51.436;7.312;2023-04-10T05:54:07;40.00;;;25.97;;
948;SDS011;461;51.436;7.312;2023-04-10T05:56:32;50.33;;;28.80;;
948;SDS011;461;51.436;7.312;2023-04-10T05:58:58;40.07;;;25.57;;
948;SDS011;461;51.436;7.312;2023-04-10T06:01:24;34.17;;;22.30;;
948;SDS011;461;51.436;7.312;2023-04-10T06:03:50;39.30;;;25.27;;
948;SDS011;461;51.436;7.312;2023-04-10T06:06:16;38.30;;;24.80;;
948;SDS011;461;51.436;7.312;2023-04-10T06:08:45;35.67;;;25.07;;
948;SDS011;461;51.436;7.312;2023-04-10T06:11:11;36.50;;;25.17;;
948;SDS011;461;51.436;7.312;2023-04-10T06:13:37;37.73;;;24.80;;
948;SDS011;461;51.436;7.312;2023-04-10T06:16:03;25.33;;;18.97;;
948;SDS011;461;51.436;7.312;2023-04-10T06:18:29;26.90;;;17.03;;
948;SDS011;461;51.436;7.312;2023-04-10T06:20:55;24.13;;;16.73;;
948;SDS011;461;51.436;7.312;2023-04-10T06:23:24;27.40;;;21.30;;
948;SDS011;461;51.436;7.312;2023-04-10T06:25:50;19.37;;;14.87;;
948;SDS011;461;51.436;7.312;2023-04-10T06:28:17;34.73;;;24.63;;
948;SDS011;461;51.436;7.312;2023-04-10T06:30:43;25.10;;;18.30;;
948;SDS011;461;51.436;7.312;2023-04-10T06:33:09;14.90;;;13.20;;
948;SDS011;461;51.436;7.312;2023-04-10T06:35:35;23.13;;;16.83;;
948;SDS011;461;51.436;7.312;2023-04-10T06:38:01;13.73;;;11.40;;
948;SDS011;461;51.436;7.312;2023-04-10T06:40:27;11.73;;;10.20;;
948;SDS011;461;51.436;7.312;2023-04-10T06:42:54;12.57;;;10.77;;
948;SDS011;461;51.436;7.312;2023-04-10T06:45:21;18.40;;;13.13;;
948;SDS011;461;51.436;7.312;2023-04-10T06:47:47;11.97;;;9.53;;
948;SDS011;461;51.436;7.312;2023-04-10T06:50:12;13.03;;;8.93;;
948;SDS011;461;51.436;7.312;2023-04-10T06:52:38;10.90;;;9.43;;
948;SDS011;461;51.436;7.312;2023-04-10T06:55:04;7.90;;;6.60;;
948;SDS011;461;51.436;7.312;2023-04-10T06:57:31;9.40;;;7.73;;
948;SDS011;461;51.436;7.312;2023-04-10T06:59:56;7.70;;;6.80;;
948;SDS011;461;51.436;7.312;2023-04-10T07:02:22;8.20;;;6.83;;
948;SDS011;461;51.436;7.312;2023-04-10T07:04:48;5.87;;;4.70;;
948;SDS011;461;51.436;7.312;2023-04-10T09:29:44;4.00;;;3.50;;
948;SDS011;461;51.436;7.312;2023-04-10T09:32:13;4.57;;;4.10;;
948;SDS011;461;51.436;7.312;2023-04-10T09:35:13;4.10;;;3.50;;
948;SDS011;461;51.436;7.312;2023-04-10T09:37:33;4.33;;;3.73;;
948;SDS011;461;51.436;7.312;2023-04-10T09:39:59;3.20;;;2.90;;
948;SDS011;461;51.436;7.312;2023-04-10T09:46:11;2.80;;;2.60;;
948;SDS011;461;51.436;7.312;2023-04-10T10:03:17;3.83;;;3.00;;
948;SDS011;461;51.436;7.312;2023-04-10T10:05:52;3.30;;;3.00;;
948;SDS011;461;51.436;7.312;2023-04-10T13:07:50;2.53;;;2.33;;
948;SDS011;461;51.436;7.312;2023-04-10T13:22:02;2.90;;;2.60;;
948;SDS011;461;51.436;7.312;2023-04-10T13:24:29;2.87;;;2.40;;
948;SDS011;461;51.436;7.312;2023-04-10T13:26:55;2.30;;;2.10;;
948;SDS011;461;51.436;7.312;2023-04-10T13:29:25;2.10;;;1.90;;
948;SDS011;461;51.436;7.312;2023-04-10T13:48:03;3.20;;;2.57;;
948;SDS011;461;51.436;7.312;2023-04-10T14:17:11;3.40;;;2.70;;
948;SDS011;461;51.436;7.312;2023-04-10T16:11:05;3.90;;;3.13;;
948;SDS011;461;51.436;7.312;2023-04-10T16:13:31;3.80;;;3.43;;
948;SDS011;461;51.436;7.312;2023-04-10T16:15:57;3.50;;;3.20;;
948;SDS011;461;51.436;7.312;2023-04-10T16:18:23;4.10;;;2.87;;
948;SDS011;461;51.436;7.312;2023-04-10T16:20:50;8.60;;;3.27;;
948;SDS011;461;51.436;7.312;2023-04-10T16:23:16;2.90;;;2.60;;
948;SDS011;461;51.436;7.312;2023-04-10T16:25:42;3.30;;;2.63;;
948;SDS011;461;51.436;7.312;2023-04-10T16:28:08;4.13;;;3.10;;
948;SDS011;461;51.436;7.312;2023-04-10T16:30:34;2.67;;;2.37;;
948;SDS011;461;51.436;7.312;2023-04-10T16:33:01;2.30;;;2.10;;
948;SDS011;461;51.436;7.312;2023-04-10T16:35:28;3.87;;;3.57;;
948;SDS011;461;51.436;7.312;2023-04-10T16:37:54;2.50;;;2.30;;
948;SDS011;461;51.436;7.312;2023-04-10T16:40:20;3.80;;;2.63;;
948;SDS011;461;51.436;7.312;2023-04-10T16:42:46;2.70;;;2.30;;
948;SDS011;461;51.436;7.312;2023-04-10T16:45:13;2.80;;;2.33;;
948;SDS011;461;51.436;7.312;2023-04-10T16:47:39;3.53;;;2.60;;
948;SDS011;461;51.436;7.312;2023-04-10T16:50:11;2.73;;;2.47;;
948;SDS011;461;51.436;7.312;2023-04-10T16:52:37;6.10;;;2.60;;
948;SDS011;461;51.436;7.312;2023-04-10T16:55:04;3.10;;;2.30;;
948;SDS011;461;51.436;7.312;2023-04-10T16:57:30;2.80;;;2.60;;
948;SDS011;461;51.436;7.312;2023-04-10T16:59:56;2.73;;;2.37;;
948;SDS011;461;51.436;7.312;2023-04-10T17:02:26;3.40;;;2.20;;
948;SDS011;461;51.436;7.312;2023-04-10T17:05:02;4.23;;;2.80;;
948;SDS011;461;51.436;7.312;2023-04-10T17:07:28;7.13;;;2.67;;
948;SDS011;461;51.436;7.312;2023-04-10T17:09:55;4.43;;;3.00;;
948;SDS011;461;51.436;7.312;2023-04-10T17:12:21;3.23;;;2.87;;
948;SDS011;461;51.436;7.312;2023-04-10T17:17:51;4.17;;;3.27;;
948;SDS011;461;51.436;7.312;2023-04-10T17:20:28;3.30;;;2.60;;
948;SDS011;461;51.436;7.312;2023-04-10T18:09:52;4.30;;;2.83;;
948;SDS011;461;51.436;7.312;2023-04-10T22:19:13;1.77;;;1.30;;
948;SDS011;461;51.436;7.312;2023-04-10T22:21:39;2.00;;;1.23;;
948;SDS011;461;51.436;7.312;2023-04-10T22:24:05;2.70;;;1.40;;
948;SDS011;461;51.436;7.312;2023-04-10T22:26:32;1.33;;;1.23;;
948;SDS011;461;51.436;7.312;2023-04-10T22:28:59;1.77;;;1.60;;
948;SDS011;461;51.436;7.312;2023-04-10T22:31:25;2.20;;;1.30;;
948;SDS011;461;51.436;7.312;2023-04-10T22:33:51;2.73;;;1.10;;
948;SDS011;461;51.436;7.312;2023-04-10T22:36:17;3.97;;;1.30;;
948;SDS011;461;51.436;7.312;2023-04-10T22:38:42;3.00;;;1.47;;
948;SDS011;461;51.436;7.312;2023-04-10T22:41:08;2.33;;;1.30;;
948;SDS011;461;51.436;7.312;2023-04-10T22:43:37;4.13;;;1.60;;
948;SDS011;461;51.436;7.312;2023-04-10T22:46:03;1.97;;;1.67;;
948;SDS011;461;51.436;7.312;2023-04-10T22:48:31;2.90;;;1.37;;
948;SDS011;461;51.436;7.312;2023-04-10T22:50:56;2.67;;;1.47;;
948;SDS011;461;51.436;7.312;2023-04-10T22:53:22;1.40;;;1.30;;
948;SDS011;461;51.436;7.312;2023-04-10T22:55:49;5.50;;;1.80;;
948;SDS011;461;51.436;7.312;2023-04-10T22:58:18;1.93;;;1.33;;
948;SDS011;461;51.436;7.312;2023-04-10T23:00:51;1.53;;;1.37;;
948;SDS011;461;51.436;7.312;2023-04-10T23:03:33;1.50;;;1.30;;
948;SDS011;461;51.436;7.312;2023-04-10T23:05:59;1.97;;;1.50;;
948;SDS011;461;51.436;7.312;2023-04-10T23:08:25;3.40;;;1.80;;
948;SDS011;461;51.436;7.312;2023-04-10T23:10:53;2.37;;;1.90;;
948;SDS011;461;51.436;7.312;2023-04-10T23:13:19;2.90;;;1.60;;
948;SDS011;461;51.436;7.312;2023-04-10T23:15:52;2.03;;;1.70;;
948;SDS011;461;51.436;7.312;2023-04-10T23:18:18;2.60;;;1.53;;
948;SDS011;461;51.436;7.312;2023-04-10T23:20:45;4.03;;;1.73;;
948;SDS011;461;51.436;7.312;2023-04-10T23:23:11;3.10;;;1.73;;
948;SDS011;461;51.436;7.312;2023-04-10T23:25:40;5.60;;;2.10;;
948;SDS011;461;51.436;7.312;2023-04-10T23:28:06;3.07;;;2.17;;
948;SDS011;461;51.436;7.312;2023-04-10T23:30:32;1.70;;;1.60;;
948;SDS011;461;51.436;7.312;2023-04-10T23:32:59;2.90;;;1.47;;
948;SDS011;461;51.436;7.312;2023-04-10T23:35:25;2.43;;;2.00;;
948;SDS011;461;51.436;7.312;2023-04-10T23:37:51;4.00;;;2.00;;
948;SDS011;461;51.436;7.312;2023-04-10T23:40:18;3.80;;;1.93;;
948;SDS011;461;51.436;7.312;2023-04-10T23:42:45;3.30;;;2.10;;
948;SDS011;461;51.436;7.312;2023-04-10T23:45:11;1.90;;;1.80;;
948;SDS011;461;51.436;7.312;2023-04-10T23:47:36;2.90;;;1.80;;
948;SDS011;461;51.436;7.312;2023-04-10T23:50:03;3.57;;;1.93;;
948;SDS011;461;51.436;7.312;2023-04-10T23:52:29;6.00;;;2.23;;
948;SDS011;461;51.436;7.312;2023-04-10T23:54:55;2.43;;;1.60;;
948;SDS011;461;51.436;7.312;2023-04-10T23:57:20;1.80;;;1.60;;
948;SDS011;461;51.436;7.312;2023-04-10T23:59:46;2.53;;;2.00;;
